createdAt,value
2018-07-24T00:02:21.618Z,21.90
2018-07-24T00:04:49.152Z,21.90
2018-07-24T00:07:16.697Z,21.90
2018-07-24T00:09:44.228Z,21.90
2018-07-24T00:12:11.635Z,21.80
2018-07-24T00:14:39.032Z,21.80
2018-07-24T00:17:06.515Z,21.70
2018-07-24T00:19:33.948Z,21.70
2018-07-24T00:22:01.360Z,21.70
2018-07-24T00:24:28.796Z,21.70
2018-07-24T00:26:56.236Z,21.60
2018-07-24T00:29:23.649Z,21.60
2018-07-24T00:31:51.048Z,21.50
2018-07-24T00:36:45.911Z,21.50
2018-07-24T00:39:13.315Z,21.50
2018-07-24T00:41:40.831Z,21.40
2018-07-24T00:44:08.371Z,21.40
2018-07-24T00:46:35.818Z,21.40
2018-07-24T00:49:03.388Z,21.40
2018-07-24T00:51:30.784Z,21.40
2018-07-24T00:53:58.241Z,21.30
2018-07-24T00:56:25.664Z,21.30
2018-07-24T00:58:53.049Z,21.30
2018-07-24T01:01:20.635Z,21.20
2018-07-24T01:03:48.120Z,21.20
2018-07-24T01:06:15.519Z,21.20
2018-07-24T01:08:42.912Z,21.10
2018-07-24T01:11:10.294Z,21.10
2018-07-24T01:13:37.700Z,21.10
2018-07-24T01:16:05.264Z,21.10
2018-07-24T01:18:32.659Z,21.10
2018-07-24T01:21:00.084Z,21.10
2018-07-24T01:23:27.475Z,21.10
2018-07-24T01:25:54.874Z,21.00
2018-07-24T01:28:22.440Z,21.10
2018-07-24T01:30:49.850Z,21.00
2018-07-24T01:33:17.254Z,20.90
2018-07-24T01:35:44.740Z,20.90
2018-07-24T01:38:12.138Z,20.90
2018-07-24T01:40:39.527Z,20.90
2018-07-24T01:43:06.995Z,20.80
2018-07-24T01:45:34.475Z,20.90
2018-07-24T01:50:29.482Z,20.80
2018-07-24T01:55:24.384Z,20.70
2018-07-24T01:57:51.999Z,20.70
2018-07-24T02:00:19.491Z,20.70
2018-07-24T02:02:46.934Z,20.80
2018-07-24T02:05:14.488Z,20.80
2018-07-24T02:07:42.322Z,20.80
2018-07-24T02:10:09.811Z,20.80
2018-07-24T02:12:37.283Z,20.90
2018-07-24T02:15:05.239Z,20.80
2018-07-24T02:17:32.678Z,20.90
2018-07-24T02:20:00.141Z,20.90
2018-07-24T02:22:27.728Z,20.80
2018-07-24T02:24:55.142Z,20.80
2018-07-24T02:27:22.597Z,20.80
2018-07-24T02:29:50.035Z,20.80
2018-07-24T02:32:17.476Z,20.80
2018-07-24T02:34:44.910Z,20.70
2018-07-24T02:37:12.356Z,20.70
2018-07-24T02:39:39.790Z,20.70
2018-07-24T02:42:07.281Z,20.60
2018-07-24T02:44:34.760Z,20.60
2018-07-24T02:51:57.104Z,20.50
2018-07-24T02:54:24.572Z,20.50
2018-07-24T02:56:52.103Z,20.50
2018-07-24T02:59:19.501Z,20.40
2018-07-24T03:01:47.680Z,20.40
2018-07-24T03:04:15.107Z,20.40
2018-07-24T03:06:42.544Z,20.40
2018-07-24T03:09:10.916Z,20.30
2018-07-24T03:11:38.519Z,20.30
2018-07-24T03:14:06.242Z,20.30
2018-07-24T03:16:33.656Z,20.20
2018-07-24T03:19:01.157Z,20.20
2018-07-24T03:21:28.531Z,20.20
2018-07-24T03:23:55.924Z,20.20
2018-07-24T03:26:23.331Z,20.20
2018-07-24T03:28:50.777Z,20.20
2018-07-24T03:31:18.255Z,20.10
2018-07-24T03:33:45.846Z,20.10
2018-07-24T03:36:13.299Z,20.10
2018-07-24T03:38:40.748Z,20.10
2018-07-24T03:41:08.144Z,20.10
2018-07-24T03:43:35.531Z,20.10
2018-07-24T03:46:02.992Z,20.10
2018-07-24T03:48:30.400Z,20.10
2018-07-24T03:50:57.815Z,20.10
2018-07-24T03:53:25.227Z,20.10
2018-07-24T03:55:52.637Z,20.10
2018-07-24T03:58:20.037Z,20.10
2018-07-24T04:00:47.591Z,20.10
2018-07-24T04:05:42.436Z,20.10
2018-07-24T04:08:09.848Z,20.10
2018-07-24T04:10:37.340Z,20.10
2018-07-24T04:13:04.844Z,20.10
2018-07-24T04:15:32.258Z,20.20
2018-07-24T04:17:59.703Z,20.20
2018-07-24T04:20:27.113Z,20.20
2018-07-24T04:22:54.548Z,20.30
2018-07-24T04:25:22.049Z,20.30
2018-07-24T04:30:16.956Z,20.40
2018-07-24T04:32:44.605Z,20.40
2018-07-24T04:35:12.058Z,20.40
2018-07-24T04:37:39.502Z,20.50
2018-07-24T04:40:07.036Z,20.60
2018-07-24T04:45:01.933Z,20.80
2018-07-24T04:49:56.758Z,21.00
2018-07-24T04:52:24.166Z,21.00
2018-07-24T04:54:51.653Z,21.10
2018-07-24T04:57:19.101Z,21.10
2018-07-24T04:59:46.535Z,21.10
2018-07-24T05:02:13.995Z,21.20
2018-07-24T05:04:41.448Z,21.20
2018-07-24T05:07:09.149Z,21.20
2018-07-24T05:09:36.643Z,21.20
2018-07-24T05:14:31.532Z,21.30
2018-07-24T05:19:26.602Z,21.60
2018-07-24T05:21:54.115Z,21.90
2018-07-24T05:26:49.031Z,22.60
2018-07-24T05:29:16.447Z,23.30
2018-07-24T05:31:44.091Z,24.10
2018-07-24T05:34:11.616Z,25.00
2018-07-24T05:36:39.036Z,25.70
2018-07-24T05:39:07.835Z,26.40
2018-07-24T05:41:35.243Z,27.00
2018-07-24T05:44:02.687Z,27.50
2018-07-24T05:46:30.127Z,27.60
2018-07-24T05:48:57.715Z,27.60
2018-07-24T05:51:25.064Z,27.50
2018-07-24T05:53:52.499Z,27.20
2018-07-24T05:58:47.411Z,26.50
2018-07-24T06:03:42.562Z,25.90
2018-07-24T06:06:09.971Z,25.60
2018-07-24T06:08:37.367Z,25.40
2018-07-24T06:11:04.903Z,25.30
2018-07-24T06:13:32.319Z,25.10
2018-07-24T06:15:59.743Z,24.90
2018-07-24T06:18:27.163Z,24.80
2018-07-24T06:20:54.616Z,24.60
2018-07-24T06:23:22.102Z,24.80
2018-07-24T06:25:49.608Z,24.90
2018-07-24T06:28:17.000Z,24.90
2018-07-24T06:30:44.431Z,25.00
2018-07-24T06:33:11.843Z,25.00
2018-07-24T06:35:39.271Z,25.20
2018-07-24T06:38:06.843Z,25.10
2018-07-24T06:40:34.278Z,24.90
2018-07-24T06:43:01.700Z,25.00
2018-07-24T06:45:29.140Z,25.00
2018-07-24T06:47:56.519Z,25.20
2018-07-24T06:50:23.959Z,25.30
2018-07-24T06:52:51.380Z,25.50
2018-07-24T06:57:46.248Z,25.70
2018-07-24T07:00:13.775Z,25.90
2018-07-24T07:02:41.195Z,26.00
2018-07-24T07:05:08.974Z,26.10
2018-07-24T07:07:36.468Z,26.20
2018-07-24T07:10:04.236Z,26.30
2018-07-24T07:12:31.720Z,26.40
2018-07-24T07:15:00.207Z,26.50
2018-07-24T07:17:27.730Z,26.60
2018-07-24T07:19:55.415Z,26.70
2018-07-24T07:22:23.163Z,26.80
2018-07-24T07:24:50.611Z,26.90
2018-07-24T07:27:18.036Z,27.00
2018-07-24T07:29:45.516Z,27.00
2018-07-24T07:32:12.942Z,27.10
2018-07-24T07:34:40.389Z,27.30
2018-07-24T07:37:07.806Z,27.40
2018-07-24T07:39:35.211Z,27.50
2018-07-24T07:42:02.785Z,27.60
2018-07-24T07:44:31.307Z,27.70
2018-07-24T07:46:58.713Z,27.70
2018-07-24T07:49:26.120Z,27.80
2018-07-24T07:51:53.639Z,28.00
2018-07-24T07:54:21.051Z,28.10
2018-07-24T07:56:48.595Z,28.10
2018-07-24T07:59:16.120Z,28.20
2018-07-24T08:01:43.692Z,28.30
2018-07-24T08:04:11.280Z,28.40
2018-07-24T08:06:38.778Z,28.50
2018-07-24T08:09:07.487Z,28.50
2018-07-24T08:11:35.003Z,28.50
2018-07-24T08:14:03.536Z,28.60
2018-07-24T08:16:31.078Z,28.70
2018-07-24T08:19:02.841Z,28.80
2018-07-24T08:21:30.288Z,28.90
2018-07-24T08:23:58.310Z,29.00
2018-07-24T08:26:25.736Z,28.90
2018-07-24T08:28:53.176Z,28.80
2018-07-24T08:31:20.697Z,28.90
2018-07-24T08:33:48.129Z,29.00
2018-07-24T08:36:16.114Z,29.10
2018-07-24T08:38:43.556Z,29.10
2018-07-24T08:41:11.043Z,29.20
2018-07-24T08:43:38.515Z,29.30
2018-07-24T08:46:06.107Z,29.30
2018-07-24T08:48:33.625Z,29.30
2018-07-24T08:51:01.088Z,29.40
2018-07-24T08:53:28.722Z,29.40
2018-07-24T08:55:55.952Z,29.40
2018-07-24T08:58:23.368Z,29.30
2018-07-24T09:00:50.786Z,29.30
2018-07-24T09:03:18.246Z,29.30
2018-07-24T09:05:45.639Z,29.40
2018-07-24T09:08:13.047Z,29.50
2018-07-24T09:10:40.466Z,29.50
2018-07-24T09:13:07.927Z,29.60
2018-07-24T09:15:35.428Z,29.60
2018-07-24T09:18:02.868Z,29.70
2018-07-24T09:20:30.279Z,29.80
2018-07-24T09:22:57.783Z,30.00
2018-07-24T09:25:25.204Z,30.10
2018-07-24T09:27:52.638Z,30.10
2018-07-24T09:30:20.137Z,30.10
2018-07-24T09:35:15.115Z,30.20
2018-07-24T09:37:42.555Z,30.30
2018-07-24T09:40:09.985Z,30.30
2018-07-24T09:42:37.435Z,30.60
2018-07-24T09:47:32.486Z,31.20
2018-07-24T09:49:59.858Z,31.40
2018-07-24T09:52:27.299Z,31.60
2018-07-24T09:54:54.715Z,31.50
2018-07-24T09:57:22.135Z,31.60
2018-07-24T09:59:49.552Z,31.60
2018-07-24T10:04:44.375Z,31.80
2018-07-24T10:07:11.827Z,32.00
2018-07-24T10:09:39.266Z,32.10
2018-07-24T10:12:06.770Z,32.30
2018-07-24T10:14:34.147Z,32.60
2018-07-24T10:17:01.646Z,33.00
2018-07-24T10:19:29.068Z,33.20
2018-07-24T10:26:51.517Z,33.20
2018-07-24T10:29:18.967Z,33.70
2018-07-24T10:31:46.371Z,34.20
2018-07-24T10:34:13.831Z,34.50
2018-07-24T10:39:09.836Z,34.40
2018-07-24T10:41:37.316Z,34.40
2018-07-24T10:44:04.854Z,34.40
2018-07-24T10:46:32.275Z,34.30
2018-07-24T10:48:59.760Z,34.20
2018-07-24T10:51:27.211Z,34.40
2018-07-24T10:53:54.627Z,34.70
2018-07-24T10:56:22.091Z,34.90
2018-07-24T10:58:49.506Z,35.10
2018-07-24T11:01:16.967Z,35.40
2018-07-24T11:03:44.416Z,35.50
2018-07-24T11:06:11.808Z,35.40
2018-07-24T11:08:39.219Z,35.40
2018-07-24T11:11:06.686Z,35.60
2018-07-24T11:13:34.080Z,35.60
2018-07-24T11:16:01.524Z,35.80
2018-07-24T11:18:29.084Z,35.80
2018-07-24T11:20:56.618Z,35.80
2018-07-24T11:23:24.132Z,36.00
2018-07-24T11:25:52.879Z,36.10
2018-07-24T11:28:20.343Z,36.20
2018-07-24T11:30:47.823Z,36.40
2018-07-24T11:33:15.326Z,36.40
2018-07-24T11:35:42.904Z,36.50
2018-07-24T11:38:10.307Z,36.30
2018-07-24T11:40:37.848Z,36.30
2018-07-24T11:43:05.268Z,36.20
2018-07-24T11:45:32.719Z,36.10
2018-07-24T11:48:00.151Z,36.30
2018-07-24T11:50:27.592Z,36.40
2018-07-24T11:52:55.038Z,36.30
2018-07-24T11:55:22.476Z,36.30
2018-07-24T12:00:17.396Z,36.60
2018-07-24T12:02:44.910Z,36.60
2018-07-24T12:05:12.409Z,36.50
2018-07-24T12:07:39.792Z,36.30
2018-07-24T12:10:07.316Z,36.20
2018-07-24T12:12:34.822Z,36.10
2018-07-24T12:17:29.723Z,36.10
2018-07-24T12:19:57.171Z,36.10
2018-07-24T12:22:24.592Z,36.30
2018-07-24T12:24:52.047Z,36.40
2018-07-24T12:27:19.467Z,36.30
2018-07-24T12:29:46.928Z,36.50
2018-07-24T12:32:14.432Z,36.70
2018-07-24T12:34:41.855Z,36.70
2018-07-24T12:37:09.455Z,36.50
2018-07-24T12:39:36.875Z,36.40
2018-07-24T12:42:04.342Z,36.60
2018-07-24T12:44:31.780Z,36.70
2018-07-24T12:46:59.207Z,36.80
2018-07-24T12:49:26.627Z,37.10
2018-07-24T12:51:54.162Z,37.30
2018-07-24T12:54:21.583Z,37.50
2018-07-24T12:56:49.000Z,37.40
2018-07-24T12:59:16.440Z,37.50
2018-07-24T13:01:43.996Z,37.40
2018-07-24T13:04:11.457Z,37.00
2018-07-24T13:06:38.956Z,36.80
2018-07-24T13:09:08.311Z,37.00
2018-07-24T13:11:35.824Z,37.00
2018-07-24T13:16:30.752Z,36.50
2018-07-24T13:18:58.139Z,36.30
2018-07-24T13:21:25.664Z,36.20
2018-07-24T13:23:53.123Z,36.30
2018-07-24T13:26:20.556Z,36.40
2018-07-24T13:28:47.973Z,36.40
2018-07-24T13:31:15.422Z,36.50
2018-07-24T13:33:42.880Z,36.70
2018-07-24T13:36:10.288Z,36.80
2018-07-24T13:38:37.767Z,36.60
2018-07-24T13:41:05.194Z,36.20
2018-07-24T13:43:32.707Z,35.50
2018-07-24T13:46:00.190Z,35.00
2018-07-24T13:48:27.543Z,34.40
2018-07-24T13:50:54.956Z,34.30
2018-07-24T13:53:22.355Z,34.40
2018-07-24T13:55:49.853Z,34.60
2018-07-24T13:58:17.288Z,34.90
2018-07-24T14:00:44.747Z,35.30
2018-07-24T14:03:12.151Z,35.60
2018-07-24T14:05:39.668Z,35.80
2018-07-24T14:10:34.697Z,35.40
2018-07-24T14:13:02.110Z,35.20
2018-07-24T14:15:29.543Z,35.00
2018-07-24T14:17:56.969Z,35.10
2018-07-24T14:20:24.438Z,35.20
2018-07-24T14:22:51.876Z,35.30
2018-07-24T14:25:19.406Z,35.50
2018-07-24T14:27:47.025Z,35.80
2018-07-24T14:30:14.579Z,36.00
2018-07-24T14:32:41.988Z,36.10
2018-07-24T14:35:09.408Z,36.20
2018-07-24T14:37:36.911Z,36.40
2018-07-24T14:40:04.538Z,36.50
2018-07-24T14:42:32.076Z,36.50
2018-07-24T14:44:59.530Z,36.50
2018-07-24T14:47:29.404Z,36.60
2018-07-24T14:49:58.717Z,36.60
2018-07-24T14:52:29.242Z,36.50
2018-07-24T14:54:57.660Z,36.40
2018-07-24T14:57:25.192Z,36.40
2018-07-24T14:59:52.688Z,36.40
2018-07-24T15:02:20.220Z,36.30
2018-07-24T15:04:47.789Z,36.20
2018-07-24T15:07:15.199Z,36.10
2018-07-24T15:09:42.633Z,36.00
2018-07-24T15:12:10.218Z,35.80
2018-07-24T15:14:37.783Z,35.50
2018-07-24T15:17:05.299Z,35.30
2018-07-24T15:22:01.287Z,35.30
2018-07-24T15:24:28.823Z,35.20
2018-07-24T15:26:56.381Z,35.30
2018-07-24T15:29:23.887Z,35.30
2018-07-24T15:31:52.370Z,35.30
2018-07-24T15:34:22.003Z,35.30
2018-07-24T15:36:53.351Z,35.30
2018-07-24T15:39:20.842Z,35.30
2018-07-24T15:46:43.325Z,34.80
2018-07-24T15:49:10.809Z,34.50
2018-07-24T15:51:38.391Z,34.30
2018-07-24T15:54:06.826Z,34.20
2018-07-24T15:56:34.436Z,34.20
2018-07-24T15:59:01.882Z,34.20
2018-07-24T16:01:29.403Z,34.10
2018-07-24T16:03:56.823Z,34.10
2018-07-24T16:06:24.374Z,34.10
2018-07-24T16:08:51.819Z,34.10
2018-07-24T16:13:46.895Z,34.10
2018-07-24T16:16:14.428Z,34.00
2018-07-24T16:21:09.464Z,34.00
2018-07-24T16:23:36.909Z,33.90
2018-07-24T16:26:05.511Z,33.80
2018-07-24T16:28:32.943Z,33.80
2018-07-24T16:31:00.432Z,33.80
2018-07-24T16:33:27.868Z,33.70
2018-07-24T16:35:55.388Z,33.80
2018-07-24T16:43:17.923Z,33.70
2018-07-24T16:45:45.413Z,33.70
2018-07-24T16:50:40.363Z,33.60
2018-07-24T16:53:07.863Z,33.50
2018-07-24T16:55:35.395Z,33.30
2018-07-24T16:58:02.961Z,33.30
2018-07-24T17:00:31.528Z,33.30
2018-07-24T17:03:00.102Z,33.30
2018-07-24T17:05:30.702Z,33.40
2018-07-24T17:07:58.231Z,33.40
2018-07-24T17:10:25.971Z,33.40
2018-07-24T17:12:53.547Z,33.40
2018-07-24T17:15:20.998Z,33.30
2018-07-24T17:17:48.442Z,33.30
2018-07-24T17:20:15.931Z,33.20
2018-07-24T17:22:43.420Z,33.10
2018-07-24T17:25:10.940Z,33.10
2018-07-24T17:27:38.421Z,33.10
2018-07-24T17:30:05.858Z,33.10
2018-07-24T17:32:33.268Z,33.10
2018-07-24T17:35:00.703Z,33.10
2018-07-24T17:37:28.140Z,33.10
2018-07-24T17:39:55.579Z,33.00
2018-07-24T17:42:23.060Z,33.10
2018-07-24T17:44:50.593Z,33.10
2018-07-24T17:47:18.139Z,33.00
2018-07-24T17:49:45.588Z,32.90
2018-07-24T17:54:44.527Z,32.80
2018-07-24T17:57:11.936Z,32.80
2018-07-24T17:59:39.467Z,32.80
2018-07-24T18:02:07.046Z,32.60
2018-07-24T18:04:34.488Z,32.60
2018-07-24T18:07:01.973Z,32.60
2018-07-24T18:09:29.378Z,32.50
2018-07-24T18:11:56.863Z,32.30
2018-07-24T18:14:24.411Z,32.30
2018-07-24T18:16:51.896Z,32.20
2018-07-24T18:19:19.448Z,32.10
2018-07-24T18:21:46.868Z,32.00
2018-07-24T18:24:14.338Z,32.00
2018-07-24T18:26:41.759Z,32.00
2018-07-24T18:29:09.195Z,31.90
2018-07-24T18:31:36.636Z,31.90
2018-07-24T18:34:04.099Z,31.80
2018-07-24T18:36:32.567Z,31.70
2018-07-24T18:38:59.995Z,31.70
2018-07-24T18:41:27.528Z,31.60
2018-07-24T18:43:55.059Z,31.60
2018-07-24T18:46:22.467Z,31.60
2018-07-24T18:48:50.955Z,31.50
2018-07-24T18:51:18.419Z,31.40
2018-07-24T18:53:46.900Z,31.40
2018-07-24T18:56:15.403Z,31.30
2018-07-24T18:58:43.066Z,31.20
2018-07-24T19:01:10.617Z,31.10
2018-07-24T19:03:38.071Z,31.00
2018-07-24T19:06:05.521Z,30.90
2018-07-24T19:08:32.975Z,30.80
2018-07-24T19:11:00.419Z,30.70
2018-07-24T19:13:27.848Z,30.60
2018-07-24T19:15:56.352Z,30.50
2018-07-24T19:18:24.889Z,30.50
2018-07-24T19:20:52.339Z,30.40
2018-07-24T19:23:27.570Z,30.40
2018-07-24T19:26:00.310Z,30.30
2018-07-24T19:28:29.371Z,30.20
2018-07-24T19:31:05.326Z,30.10
2018-07-24T19:33:34.622Z,30.10
2018-07-24T19:36:03.758Z,30.00
2018-07-24T19:38:31.102Z,29.90
2018-07-24T19:40:58.359Z,29.90
2018-07-24T19:43:25.773Z,29.80
2018-07-24T19:45:53.085Z,29.70
2018-07-24T19:48:20.337Z,29.60
2018-07-24T19:50:47.597Z,29.60
2018-07-24T19:55:38.505Z,29.50
2018-07-24T19:58:05.857Z,29.30
2018-07-24T20:00:33.079Z,29.20
2018-07-24T20:03:00.307Z,29.10
2018-07-24T20:05:27.905Z,29.10
2018-07-24T20:07:55.650Z,29.00
2018-07-24T20:10:23.240Z,29.00
2018-07-24T20:12:50.782Z,28.90
2018-07-24T20:15:19.621Z,28.80
2018-07-24T20:17:47.250Z,28.70
2018-07-24T20:20:15.363Z,28.70
2018-07-24T20:22:42.846Z,28.60
2018-07-24T20:25:10.487Z,28.50
2018-07-24T20:27:37.914Z,28.40
2018-07-24T20:30:05.936Z,28.40
2018-07-24T20:32:33.417Z,28.30
2018-07-24T20:35:00.894Z,28.30
2018-07-24T20:37:28.504Z,28.20
2018-07-24T20:39:55.919Z,28.20
2018-07-24T20:42:23.348Z,28.10
2018-07-24T20:44:50.817Z,28.10
2018-07-24T20:49:46.191Z,28.00
2018-07-24T20:52:13.651Z,28.00
2018-07-24T20:54:41.092Z,28.00
2018-07-24T20:59:36.047Z,28.00
2018-07-24T21:02:03.503Z,28.00
2018-07-24T21:04:31.018Z,27.90
2018-07-24T21:06:58.418Z,27.90
2018-07-24T21:09:26.416Z,27.90
2018-07-24T21:11:53.851Z,27.90
2018-07-24T21:14:21.282Z,27.90
2018-07-24T21:16:48.719Z,27.90
2018-07-24T21:19:16.131Z,27.90
2018-07-24T21:21:43.552Z,27.90
2018-07-24T21:24:11.051Z,27.80
2018-07-24T21:26:38.490Z,27.90
2018-07-24T21:29:05.902Z,27.80
2018-07-24T21:31:33.452Z,27.70
2018-07-24T21:34:00.875Z,27.80
2018-07-24T21:36:28.280Z,27.80
2018-07-24T21:38:55.779Z,27.80
2018-07-24T21:41:23.224Z,27.80
2018-07-24T21:43:50.689Z,27.80
2018-07-24T21:46:18.250Z,27.80
2018-07-24T21:48:45.655Z,27.80
2018-07-24T21:51:13.063Z,27.80
2018-07-24T21:53:40.823Z,27.70
2018-07-24T21:56:08.267Z,27.70
2018-07-24T21:58:36.820Z,27.70
2018-07-24T22:01:12.360Z,27.70
2018-07-24T22:03:39.963Z,27.60
2018-07-24T22:06:08.099Z,27.60
2018-07-24T22:08:36.017Z,27.50
2018-07-24T22:11:03.451Z,27.50
2018-07-24T22:13:30.856Z,27.50
2018-07-24T22:15:58.266Z,27.50
2018-07-24T22:18:25.718Z,27.40
2018-07-24T22:20:53.227Z,27.30
2018-07-24T22:23:20.723Z,27.30
2018-07-24T22:25:48.311Z,27.20
2018-07-24T22:28:15.730Z,27.20
2018-07-24T22:30:43.187Z,27.20
2018-07-24T22:33:10.755Z,27.10
2018-07-24T22:40:33.251Z,27.10
2018-07-24T22:43:00.655Z,27.10
2018-07-24T22:45:28.502Z,27.00
2018-07-24T22:47:55.894Z,27.00
2018-07-24T22:50:23.332Z,27.00
2018-07-24T22:52:50.734Z,27.00
2018-07-24T22:55:18.151Z,26.90
2018-07-24T22:57:45.545Z,26.90
2018-07-24T23:00:13.316Z,26.90
2018-07-24T23:02:41.669Z,26.80
2018-07-24T23:05:09.112Z,26.70
2018-07-24T23:07:36.601Z,26.60
2018-07-24T23:10:04.455Z,26.60
2018-07-24T23:12:31.884Z,26.40
2018-07-24T23:14:59.380Z,26.40
2018-07-24T23:17:26.815Z,26.30
2018-07-24T23:19:54.316Z,26.20
2018-07-24T23:22:21.750Z,26.20
2018-07-24T23:24:49.507Z,26.20
2018-07-24T23:27:16.961Z,26.20
2018-07-24T23:29:44.403Z,26.10
2018-07-24T23:32:11.824Z,26.00
2018-07-24T23:34:39.535Z,26.00
2018-07-24T23:37:07.015Z,26.00
2018-07-24T23:39:34.495Z,26.00
2018-07-24T23:42:01.947Z,26.00
2018-07-24T23:44:29.346Z,25.90
2018-07-24T23:46:57.000Z,25.90
2018-07-24T23:49:24.408Z,25.90
2018-07-24T23:51:51.909Z,25.80
2018-07-24T23:54:19.334Z,25.80
2018-07-24T23:56:48.475Z,25.70
2018-07-24T23:59:15.891Z,25.60
